createdAt,value
2018-10-07T00:00:58.922Z,4.28
2018-10-07T00:02:01.923Z,4.55
2018-10-07T00:03:04.911Z,4.78
2018-10-07T00:04:08.009Z,4.28
2018-10-07T00:05:11.082Z,4.62
2018-10-07T00:06:14.171Z,4.80
2018-10-07T00:07:17.431Z,4.72
2018-10-07T00:08:20.530Z,4.35
2018-10-07T00:09:24.564Z,4.70
2018-10-07T00:10:27.942Z,4.40
2018-10-07T00:11:31.459Z,4.87
2018-10-07T00:12:37.618Z,4.65
2018-10-07T00:13:40.847Z,4.80
2018-10-07T00:14:44.595Z,4.90
2018-10-07T00:15:47.761Z,4.95
2018-10-07T00:16:51.451Z,4.70
2018-10-07T00:17:54.558Z,4.80
2018-10-07T00:18:58.052Z,4.87
2018-10-07T00:20:01.195Z,5.12
2018-10-07T00:21:05.991Z,4.58
2018-10-07T00:22:09.303Z,4.58
2018-10-07T00:23:14.350Z,5.10
2018-10-07T00:24:18.227Z,4.37
2018-10-07T00:25:23.902Z,4.90
2018-10-07T00:26:27.786Z,4.92
2018-10-07T00:27:31.680Z,4.97
2018-10-07T00:28:35.739Z,4.95
2018-10-07T00:29:39.389Z,5.25
2018-10-07T00:30:42.439Z,5.40
2018-10-07T00:31:50.884Z,5.05
2018-10-07T00:32:54.218Z,4.60
2018-10-07T00:33:57.783Z,4.97
2018-10-07T00:35:00.876Z,5.20
2018-10-07T00:36:04.982Z,5.00
2018-10-07T00:37:08.676Z,5.03
2018-10-07T00:38:12.350Z,4.80
2018-10-07T00:39:15.387Z,5.15
2018-10-07T00:40:19.368Z,5.37
2018-10-07T00:41:22.355Z,4.92
2018-10-07T00:42:25.359Z,4.70
2018-10-07T00:43:28.426Z,4.90
2018-10-07T00:44:31.746Z,5.25
2018-10-07T00:45:35.537Z,4.83
2018-10-07T00:46:39.070Z,4.90
2018-10-07T00:47:42.590Z,4.87
2018-10-07T00:48:45.618Z,5.03
2018-10-07T00:49:49.294Z,5.30
2018-10-07T00:50:52.824Z,4.80
2018-10-07T00:51:55.911Z,5.30
2018-10-07T00:52:58.983Z,5.37
2018-10-07T00:54:02.019Z,5.08
2018-10-07T00:55:05.099Z,5.10
2018-10-07T00:56:08.574Z,4.87
2018-10-07T00:57:12.108Z,4.83
2018-10-07T00:58:15.167Z,4.90
2018-10-07T00:59:18.215Z,5.50
2018-10-07T01:00:21.456Z,4.92
2018-10-07T01:01:25.195Z,5.20
2018-10-07T01:02:28.271Z,5.20
2018-10-07T01:03:31.747Z,5.03
2018-10-07T01:04:34.887Z,4.97
2018-10-07T01:05:38.570Z,5.37
2018-10-07T01:06:42.854Z,5.05
2018-10-07T01:07:45.949Z,5.22
2018-10-07T01:08:48.989Z,5.15
2018-10-07T01:09:53.022Z,5.33
2018-10-07T01:10:56.766Z,5.28
2018-10-07T01:12:00.731Z,5.50
2018-10-07T01:13:03.766Z,5.22
2018-10-07T01:14:06.917Z,5.37
2018-10-07T01:15:11.159Z,5.05
2018-10-07T01:16:14.751Z,5.75
2018-10-07T01:17:17.843Z,5.33
2018-10-07T01:18:20.903Z,5.65
2018-10-07T01:19:24.604Z,5.37
2018-10-07T01:20:29.319Z,5.47
2018-10-07T01:21:32.374Z,4.97
2018-10-07T01:22:35.581Z,5.30
2018-10-07T01:23:39.107Z,5.30
2018-10-07T01:24:42.800Z,5.15
2018-10-07T01:25:47.448Z,5.53
2018-10-07T01:26:50.574Z,5.53
2018-10-07T01:27:54.462Z,5.15
2018-10-07T01:28:58.395Z,5.30
2018-10-07T01:30:01.440Z,5.00
2018-10-07T01:31:05.191Z,5.15
2018-10-07T01:32:09.423Z,5.53
2018-10-07T01:33:13.430Z,5.15
2018-10-07T01:34:16.950Z,5.83
2018-10-07T01:35:20.651Z,5.37
2018-10-07T01:36:24.387Z,5.00
2018-10-07T01:37:27.430Z,5.00
2018-10-07T01:38:30.614Z,5.28
2018-10-07T01:39:33.740Z,5.35
2018-10-07T01:40:38.224Z,5.08
2018-10-07T01:41:41.288Z,5.25
2018-10-07T01:42:45.195Z,5.03
2018-10-07T01:43:48.405Z,5.20
2018-10-07T01:44:51.922Z,5.55
2018-10-07T01:45:55.782Z,5.10
2018-10-07T01:46:58.908Z,5.33
2018-10-07T01:48:02.419Z,5.55
2018-10-07T01:49:05.739Z,5.40
2018-10-07T01:50:08.767Z,5.65
2018-10-07T01:51:12.517Z,5.22
2018-10-07T01:52:15.594Z,5.00
2018-10-07T01:53:18.687Z,5.40
2018-10-07T01:54:22.458Z,5.67
2018-10-07T01:55:25.477Z,5.90
2018-10-07T01:56:28.522Z,5.50
2018-10-07T01:57:31.605Z,5.53
2018-10-07T01:58:34.629Z,5.55
2018-10-07T01:59:37.702Z,5.70
2018-10-07T02:00:40.791Z,5.83
2018-10-07T02:01:44.394Z,5.50
2018-10-07T02:02:47.918Z,6.08
2018-10-07T02:03:50.954Z,5.45
2018-10-07T02:04:54.603Z,5.83
2018-10-07T02:05:58.396Z,5.55
2018-10-07T02:07:01.504Z,5.62
2018-10-07T02:08:04.554Z,5.80
2018-10-07T02:09:10.727Z,5.67
2018-10-07T02:10:13.911Z,5.67
2018-10-07T02:11:17.619Z,5.28
2018-10-07T02:12:20.751Z,5.33
2018-10-07T02:13:24.259Z,5.90
2018-10-07T02:14:28.618Z,5.42
2018-10-07T02:15:31.651Z,6.10
2018-10-07T02:16:35.095Z,5.70
2018-10-07T02:17:38.818Z,5.80
2018-10-07T02:18:44.002Z,6.03
2018-10-07T02:19:48.174Z,5.78
2018-10-07T02:20:51.238Z,5.92
2018-10-07T02:21:58.286Z,5.75
2018-10-07T02:23:01.774Z,5.83
2018-10-07T02:24:05.086Z,5.65
2018-10-07T02:25:09.086Z,5.97
2018-10-07T02:26:13.291Z,5.95
2018-10-07T02:27:17.231Z,5.75
2018-10-07T02:28:20.676Z,5.90
2018-10-07T02:29:23.938Z,5.92
2018-10-07T02:30:27.045Z,5.78
2018-10-07T02:31:30.816Z,6.08
2018-10-07T02:32:33.837Z,6.03
2018-10-07T02:33:36.905Z,5.87
2018-10-07T02:34:40.083Z,6.10
2018-10-07T02:35:43.124Z,5.90
2018-10-07T02:36:46.209Z,5.87
2018-10-07T02:37:49.719Z,6.22
2018-10-07T02:38:52.865Z,6.40
2018-10-07T02:39:55.898Z,6.10
2018-10-07T02:40:59.551Z,5.50
2018-10-07T02:42:04.211Z,5.67
2018-10-07T02:43:08.136Z,6.00
2018-10-07T02:44:11.263Z,6.12
2018-10-07T02:45:14.354Z,6.08
2018-10-07T02:46:17.881Z,6.15
2018-10-07T02:47:20.951Z,6.03
2018-10-07T02:48:27.680Z,6.22
2018-10-07T02:49:30.764Z,6.22
2018-10-07T02:50:35.067Z,6.30
2018-10-07T02:51:38.489Z,5.67
2018-10-07T02:52:46.843Z,5.50
2018-10-07T02:53:49.900Z,5.95
2018-10-07T02:54:53.011Z,5.92
2018-10-07T02:55:57.473Z,5.83
2018-10-07T02:57:00.534Z,6.17
2018-10-07T02:58:04.546Z,5.95
2018-10-07T02:59:08.094Z,6.30
2018-10-07T03:00:11.171Z,6.60
2018-10-07T03:01:14.259Z,6.00
2018-10-07T03:02:19.090Z,6.10
2018-10-07T03:03:22.175Z,6.22
2018-10-07T03:04:26.199Z,6.50
2018-10-07T03:05:29.651Z,5.65
2018-10-07T03:06:33.153Z,6.30
2018-10-07T03:07:37.146Z,5.97
2018-10-07T03:08:41.314Z,6.30
2018-10-07T03:09:44.619Z,6.50
2018-10-07T03:10:47.697Z,6.12
2018-10-07T03:11:50.751Z,6.37
2018-10-07T03:12:53.770Z,6.03
2018-10-07T03:13:57.040Z,5.87
2018-10-07T03:15:01.675Z,6.22
2018-10-07T03:16:06.758Z,6.60
2018-10-07T03:17:10.325Z,6.60
2018-10-07T03:18:13.363Z,6.05
2018-10-07T03:19:17.459Z,6.45
2018-10-07T03:20:20.511Z,6.22
2018-10-07T03:21:24.078Z,6.25
2018-10-07T03:22:27.067Z,6.25
2018-10-07T03:23:30.814Z,6.35
2018-10-07T03:24:33.812Z,6.25
2018-10-07T03:25:36.961Z,6.50
2018-10-07T03:26:39.989Z,6.17
2018-10-07T03:27:43.047Z,6.28
2018-10-07T03:28:46.560Z,6.58
2018-10-07T03:29:49.598Z,6.78
2018-10-07T03:30:52.841Z,6.55
2018-10-07T03:31:55.963Z,6.37
2018-10-07T03:32:59.004Z,6.75
2018-10-07T03:34:01.988Z,7.05
2018-10-07T03:35:05.103Z,6.55
2018-10-07T03:36:08.318Z,6.85
2018-10-07T03:37:12.885Z,6.62
2018-10-07T03:38:15.948Z,6.47
2018-10-07T03:39:18.952Z,6.60
2018-10-07T03:40:22.085Z,6.53
2018-10-07T03:41:25.648Z,6.78
2018-10-07T03:42:28.631Z,6.35
2018-10-07T03:43:33.083Z,6.92
2018-10-07T03:44:36.303Z,6.92
2018-10-07T03:45:39.966Z,6.90
2018-10-07T03:46:43.083Z,6.70
2018-10-07T03:47:46.078Z,6.15
2018-10-07T03:48:49.178Z,6.28
2018-10-07T03:49:53.548Z,6.50
2018-10-07T03:50:57.213Z,7.20
2018-10-07T03:52:00.253Z,6.60
2018-10-07T03:53:04.674Z,6.70
2018-10-07T03:54:07.835Z,6.33
2018-10-07T03:55:10.891Z,7.08
2018-10-07T03:56:14.094Z,6.20
2018-10-07T03:57:17.118Z,6.62
2018-10-07T03:58:20.159Z,6.90
2018-10-07T03:59:24.145Z,6.75
2018-10-07T04:00:27.308Z,7.03
2018-10-07T04:01:31.286Z,6.90
2018-10-07T04:02:34.400Z,6.97
2018-10-07T04:03:38.551Z,6.72
2018-10-07T04:04:41.691Z,6.75
2018-10-07T04:05:45.386Z,7.20
2018-10-07T04:06:49.012Z,7.45
2018-10-07T04:07:52.142Z,6.60
2018-10-07T04:08:55.236Z,7.00
2018-10-07T04:09:58.265Z,6.72
2018-10-07T04:11:01.281Z,6.70
2018-10-07T04:12:04.935Z,7.35
2018-10-07T04:13:08.987Z,6.85
2018-10-07T04:14:13.239Z,7.22
2018-10-07T04:15:16.275Z,7.00
2018-10-07T04:16:19.977Z,6.87
2018-10-07T04:17:25.154Z,7.08
2018-10-07T04:18:28.934Z,7.28
2018-10-07T04:19:32.505Z,6.78
2018-10-07T04:20:36.535Z,7.03
2018-10-07T04:21:44.481Z,7.50
2018-10-07T04:22:48.017Z,6.90
2018-10-07T04:23:51.735Z,6.75
2018-10-07T04:24:55.526Z,7.70
2018-10-07T04:25:58.628Z,6.85
2018-10-07T04:27:02.156Z,6.90
2018-10-07T04:28:05.933Z,7.08
2018-10-07T04:29:09.434Z,6.90
2018-10-07T04:30:12.477Z,7.12
2018-10-07T04:31:15.607Z,6.97
2018-10-07T04:32:18.691Z,7.20
2018-10-07T04:33:22.624Z,7.10
2018-10-07T04:34:26.198Z,7.37
2018-10-07T04:35:29.311Z,7.05
2018-10-07T04:36:32.450Z,7.00
2018-10-07T04:37:36.186Z,7.55
2018-10-07T04:38:40.681Z,7.28
2018-10-07T04:39:45.512Z,7.12
2018-10-07T04:40:48.440Z,7.37
2018-10-07T04:41:51.412Z,7.50
2018-10-07T04:42:56.152Z,6.80
2018-10-07T04:44:01.343Z,6.90
2018-10-07T04:45:04.572Z,7.50
2018-10-07T04:46:07.715Z,7.42
2018-10-07T04:47:10.916Z,7.30
2018-10-07T04:48:14.747Z,8.08
2018-10-07T04:49:18.805Z,7.15
2018-10-07T04:50:21.859Z,6.90
2018-10-07T04:51:26.119Z,7.58
2018-10-07T04:52:29.647Z,6.72
2018-10-07T04:53:33.206Z,6.90
2018-10-07T04:54:37.489Z,7.62
2018-10-07T04:55:41.015Z,7.28
2018-10-07T04:56:44.156Z,6.97
2018-10-07T04:57:48.520Z,7.60
2018-10-07T04:58:52.467Z,7.05
2018-10-07T04:59:55.671Z,7.58
2018-10-07T05:00:59.506Z,7.30
2018-10-07T05:02:03.073Z,8.03
2018-10-07T05:03:06.696Z,7.90
2018-10-07T05:04:09.667Z,7.50
2018-10-07T05:05:12.774Z,7.75
2018-10-07T05:06:15.834Z,7.45
2018-10-07T05:07:18.995Z,8.23
2018-10-07T05:08:22.531Z,7.25
2018-10-07T05:09:26.315Z,7.47
2018-10-07T05:11:02.627Z,7.47
2018-10-07T05:12:09.473Z,7.03
2018-10-07T05:13:14.280Z,7.83
2018-10-07T05:14:18.811Z,7.17
2018-10-07T05:15:23.230Z,7.30
2018-10-07T05:17:01.221Z,7.92
2018-10-07T05:18:04.899Z,7.65
2018-10-07T05:19:08.131Z,7.67
2018-10-07T05:20:11.918Z,7.83
2018-10-07T05:21:14.966Z,7.60
2018-10-07T05:22:18.247Z,7.80
2018-10-07T05:23:21.629Z,7.87
2018-10-07T05:24:24.765Z,7.22
2018-10-07T05:25:27.868Z,8.10
2018-10-07T05:26:31.354Z,7.28
2018-10-07T05:27:34.451Z,7.80
2018-10-07T05:28:37.491Z,7.75
2018-10-07T05:29:40.603Z,7.78
2018-10-07T05:30:44.092Z,8.50
2018-10-07T05:31:48.234Z,7.67
2018-10-07T05:32:51.521Z,7.87
2018-10-07T05:33:55.942Z,7.58
2018-10-07T05:34:59.618Z,7.78
2018-10-07T05:36:02.614Z,7.28
2018-10-07T05:37:06.067Z,7.15
2018-10-07T05:38:09.770Z,7.45
2018-10-07T05:39:13.374Z,7.72
2018-10-07T05:40:16.562Z,7.75
2018-10-07T05:41:20.001Z,8.10
2018-10-07T05:42:23.067Z,7.50
2018-10-07T05:43:26.333Z,8.10
2018-10-07T05:44:29.361Z,7.97
2018-10-07T05:45:32.382Z,7.50
2018-10-07T05:46:35.368Z,7.75
2018-10-07T05:47:40.086Z,7.60
2018-10-07T05:48:43.267Z,8.30
2018-10-07T05:49:46.370Z,7.97
2018-10-07T05:50:49.665Z,7.33
2018-10-07T05:51:52.748Z,7.87
2018-10-07T05:52:56.039Z,8.08
2018-10-07T05:53:59.377Z,8.50
2018-10-07T05:55:03.002Z,7.80
2018-10-07T05:56:06.354Z,7.50
2018-10-07T05:57:09.363Z,8.33
2018-10-07T05:58:12.391Z,7.80
2018-10-07T05:59:16.023Z,8.15
2018-10-07T06:00:20.040Z,8.25
2018-10-07T06:01:27.407Z,7.60
2018-10-07T06:02:30.641Z,8.20
2018-10-07T06:03:40.393Z,7.75
2018-10-07T06:04:49.762Z,7.65
2018-10-07T06:05:52.971Z,8.28
2018-10-07T06:06:57.576Z,8.98
2018-10-07T06:08:02.095Z,8.15
2018-10-07T06:09:07.229Z,8.60
2018-10-07T06:10:13.451Z,8.85
2018-10-07T06:11:16.535Z,7.97
2018-10-07T06:12:19.693Z,8.13
2018-10-07T06:13:22.740Z,8.33
2018-10-07T06:14:37.132Z,8.10
2018-10-07T06:15:42.014Z,7.97
2018-10-07T06:16:45.047Z,8.18
2018-10-07T06:17:48.111Z,8.98
2018-10-07T06:18:51.177Z,8.05
2018-10-07T06:19:54.186Z,8.68
2018-10-07T06:20:59.311Z,8.80
2018-10-07T06:22:04.390Z,8.20
2018-10-07T06:23:07.458Z,7.95
2018-10-07T06:24:10.552Z,8.30
2018-10-07T06:25:14.861Z,9.25
2018-10-07T06:26:18.562Z,8.53
2018-10-07T06:27:21.542Z,8.35
2018-10-07T06:28:24.590Z,8.58
2018-10-07T06:29:28.279Z,8.38
2018-10-07T06:30:31.277Z,7.87
2018-10-07T06:31:35.033Z,7.70
2018-10-07T06:32:38.150Z,8.85
2018-10-07T06:33:41.199Z,8.25
2018-10-07T06:34:44.897Z,8.75
2018-10-07T06:35:48.905Z,8.55
2018-10-07T06:36:52.911Z,8.48
2018-10-07T06:37:56.558Z,8.53
2018-10-07T06:38:59.807Z,8.08
2018-10-07T06:40:02.930Z,8.50
2018-10-07T06:41:06.153Z,8.78
2018-10-07T06:42:09.223Z,8.65
2018-10-07T06:43:12.303Z,8.23
2018-10-07T06:44:15.854Z,8.38
2018-10-07T06:45:19.372Z,9.10
2018-10-07T06:46:24.042Z,8.80
2018-10-07T06:47:27.746Z,8.40
2018-10-07T06:48:30.803Z,8.20
2018-10-07T06:49:34.354Z,9.18
2018-10-07T06:50:37.421Z,8.80
2018-10-07T06:51:47.297Z,8.55
2018-10-07T06:52:50.969Z,8.13
2018-10-07T06:53:54.171Z,8.88
2018-10-07T06:54:58.083Z,8.60
2018-10-07T06:56:01.136Z,9.10
2018-10-07T06:57:04.172Z,8.40
2018-10-07T06:58:07.736Z,8.68
2018-10-07T06:59:10.821Z,8.60
2018-10-07T07:00:13.927Z,8.25
2018-10-07T07:01:16.991Z,8.70
2018-10-07T07:02:20.342Z,8.63
2018-10-07T07:03:23.360Z,8.73
2018-10-07T07:04:26.396Z,8.15
2018-10-07T07:05:30.122Z,7.75
2018-10-07T07:06:33.847Z,8.95
2018-10-07T07:07:37.534Z,8.95
2018-10-07T07:08:40.567Z,8.78
2018-10-07T07:09:43.696Z,8.73
2018-10-07T07:10:46.728Z,9.28
2018-10-07T07:11:49.766Z,8.83
2018-10-07T07:12:54.475Z,10.13
2018-10-07T07:13:57.433Z,9.03
2018-10-07T07:15:00.478Z,8.65
2018-10-07T07:16:03.827Z,9.25
2018-10-07T07:17:06.857Z,8.63
2018-10-07T07:18:09.887Z,9.63
2018-10-07T07:19:13.597Z,9.23
2018-10-07T07:20:16.729Z,9.35
2018-10-07T07:21:19.740Z,9.05
2018-10-07T07:22:23.295Z,9.43
2018-10-07T07:23:27.030Z,9.13
2018-10-07T07:24:30.118Z,8.90
2018-10-07T07:25:33.171Z,9.35
2018-10-07T07:26:36.922Z,9.43
2018-10-07T07:27:39.955Z,9.48
2018-10-07T07:28:42.979Z,9.60
2018-10-07T07:29:45.981Z,9.45
2018-10-07T07:30:49.027Z,9.43
2018-10-07T07:31:52.014Z,9.30
2018-10-07T07:32:55.118Z,9.35
2018-10-07T07:33:58.126Z,8.85
2018-10-07T07:35:01.398Z,9.15
2018-10-07T07:36:04.468Z,9.33
2018-10-07T07:37:07.451Z,8.88
2018-10-07T07:38:10.527Z,9.90
2018-10-07T07:39:13.658Z,9.90
2018-10-07T07:40:16.741Z,9.75
2018-10-07T07:41:19.743Z,9.63
2018-10-07T07:42:22.917Z,9.30
2018-10-07T07:43:25.869Z,9.48
2018-10-07T07:44:28.904Z,8.90
2018-10-07T07:45:31.967Z,9.23
2018-10-07T07:46:35.053Z,9.83
2018-10-07T07:47:38.209Z,8.98
2018-10-07T07:48:41.300Z,9.30
2018-10-07T07:49:44.332Z,9.43
2018-10-07T07:50:47.373Z,8.80
2018-10-07T07:51:50.474Z,8.35
2018-10-07T07:52:53.542Z,9.08
2018-10-07T07:53:56.600Z,9.08
2018-10-07T07:54:59.570Z,9.00
2018-10-07T07:56:02.610Z,8.88
2018-10-07T07:57:05.869Z,8.50
2018-10-07T07:58:08.845Z,9.00
2018-10-07T07:59:11.981Z,9.03
2018-10-07T08:00:15.094Z,8.53
2018-10-07T08:01:18.135Z,8.80
2018-10-07T08:02:21.195Z,9.08
2018-10-07T08:03:24.318Z,9.13
2018-10-07T08:04:27.320Z,8.63
2018-10-07T08:05:30.697Z,9.25
2018-10-07T08:06:33.890Z,8.38
2018-10-07T08:07:37.021Z,8.83
2018-10-07T08:08:40.024Z,8.35
2018-10-07T08:09:43.151Z,8.25
2018-10-07T08:10:46.311Z,8.50
2018-10-07T08:11:49.346Z,8.85
2018-10-07T08:12:52.442Z,8.63
2018-10-07T08:13:55.568Z,8.15
2018-10-07T08:14:58.559Z,8.48
2018-10-07T08:16:01.580Z,8.73
2018-10-07T08:17:04.582Z,8.98
2018-10-07T08:18:07.755Z,8.33
2018-10-07T08:19:10.726Z,9.10
2018-10-07T08:20:13.702Z,7.97
2018-10-07T08:21:16.727Z,8.25
2018-10-07T08:22:19.869Z,8.75
2018-10-07T08:23:22.951Z,8.80
2018-10-07T08:24:26.363Z,7.92
2018-10-07T08:25:29.389Z,8.48
2018-10-07T08:26:32.493Z,8.73
2018-10-07T08:27:35.527Z,8.90
2018-10-07T08:28:38.770Z,8.93
2018-10-07T08:29:41.798Z,8.50
2018-10-07T08:30:44.737Z,8.90
2018-10-07T08:31:47.936Z,8.70
2018-10-07T08:32:50.968Z,8.95
2018-10-07T08:33:54.074Z,8.28
2018-10-07T08:34:57.052Z,8.08
2018-10-07T08:36:00.060Z,8.58
2018-10-07T08:37:03.107Z,7.67
2018-10-07T08:38:06.155Z,8.48
2018-10-07T08:39:09.932Z,8.43
2018-10-07T08:40:13.058Z,8.65
2018-10-07T08:41:16.199Z,7.83
2018-10-07T08:42:19.238Z,8.63
2018-10-07T08:43:22.273Z,7.65
2018-10-07T08:44:25.359Z,7.95
2018-10-07T08:45:28.375Z,8.83
2018-10-07T08:46:31.421Z,8.13
2018-10-07T08:47:34.423Z,7.67
2018-10-07T08:48:37.538Z,7.60
2018-10-07T08:49:40.787Z,8.00
2018-10-07T08:50:43.780Z,8.18
2018-10-07T08:51:46.810Z,7.65
2018-10-07T08:52:49.815Z,7.85
2018-10-07T08:53:52.828Z,7.53
2018-10-07T08:54:55.918Z,8.00
2018-10-07T08:55:59.024Z,7.00
2018-10-07T08:57:02.023Z,7.75
2018-10-07T08:58:05.017Z,7.97
2018-10-07T08:59:08.044Z,7.80
2018-10-07T09:00:11.042Z,7.67
2018-10-07T09:01:14.114Z,7.75
2018-10-07T09:02:17.120Z,7.78
2018-10-07T09:03:20.174Z,7.92
2018-10-07T09:04:23.472Z,7.58
2018-10-07T09:05:26.761Z,7.10
2018-10-07T09:06:29.735Z,7.65
2018-10-07T09:07:32.833Z,7.17
2018-10-07T09:08:35.926Z,7.53
2018-10-07T09:09:39.232Z,7.50
2018-10-07T09:10:42.359Z,7.33
2018-10-07T09:11:45.330Z,8.10
2018-10-07T09:12:48.351Z,7.20
2018-10-07T09:13:51.383Z,7.17
2018-10-07T09:14:54.420Z,7.87
2018-10-07T09:15:57.573Z,7.40
2018-10-07T09:17:00.627Z,6.92
2018-10-07T09:18:03.655Z,7.08
2018-10-07T09:19:06.657Z,6.90
2018-10-07T09:20:09.670Z,7.35
2018-10-07T09:21:12.937Z,7.20
2018-10-07T09:22:15.983Z,7.47
2018-10-07T09:23:19.019Z,6.87
2018-10-07T09:24:22.218Z,7.00
2018-10-07T09:25:25.335Z,6.97
2018-10-07T09:26:28.409Z,7.08
2018-10-07T09:27:31.476Z,6.95
2018-10-07T09:28:34.468Z,7.20
2018-10-07T09:29:37.476Z,7.08
2018-10-07T09:30:40.499Z,7.40
2018-10-07T09:31:43.624Z,7.00
2018-10-07T09:32:46.673Z,6.65
2018-10-07T09:33:49.717Z,6.92
2018-10-07T09:34:52.894Z,7.05
2018-10-07T09:35:55.899Z,6.95
2018-10-07T09:36:59.023Z,7.03
2018-10-07T09:38:02.041Z,7.03
2018-10-07T09:39:07.440Z,7.12
2018-10-07T09:40:10.442Z,6.95
2018-10-07T09:41:13.488Z,6.53
2018-10-07T09:42:16.560Z,6.53
2018-10-07T09:43:19.666Z,7.47
2018-10-07T09:44:22.646Z,7.75
2018-10-07T09:45:25.721Z,7.00
2018-10-07T09:46:28.750Z,7.83
2018-10-07T09:47:32.133Z,8.30
2018-10-07T09:48:35.201Z,7.47
2018-10-07T09:49:38.355Z,7.45
2018-10-07T09:50:41.432Z,6.90
2018-10-07T09:51:44.507Z,7.67
2018-10-07T09:52:47.546Z,7.37
2018-10-07T09:53:50.550Z,6.65
2018-10-07T09:54:53.755Z,7.37
2018-10-07T09:55:56.727Z,7.17
2018-10-07T09:56:59.714Z,7.00
2018-10-07T09:58:02.842Z,7.00
2018-10-07T09:59:06.117Z,7.10
2018-10-07T10:00:09.255Z,7.22
2018-10-07T10:01:12.241Z,7.20
2018-10-07T10:02:15.331Z,7.45
2018-10-07T10:03:23.842Z,7.15
2018-10-07T10:04:28.783Z,7.42
2018-10-07T10:05:33.135Z,7.37
2018-10-07T10:06:38.332Z,6.60
2018-10-07T10:07:43.194Z,7.22
2018-10-07T10:08:50.009Z,7.53
2018-10-07T10:09:54.995Z,7.00
2018-10-07T10:11:02.396Z,7.42
2018-10-07T10:12:05.873Z,7.30
2018-10-07T10:13:12.177Z,7.33
2018-10-07T10:14:15.882Z,7.42
2018-10-07T10:15:19.269Z,6.78
2018-10-07T10:16:31.497Z,7.22
2018-10-07T10:17:34.719Z,6.50
2018-10-07T10:18:45.911Z,6.45
2018-10-07T10:20:00.950Z,6.35
2018-10-07T10:21:08.042Z,6.03
2018-10-07T10:22:19.251Z,6.22
2018-10-07T10:23:51.201Z,6.30
2018-10-07T10:26:23.193Z,6.65
2018-10-07T10:27:51.756Z,6.15
2018-10-07T10:29:34.083Z,6.78
2018-10-07T10:31:06.339Z,5.87
2018-10-07T10:33:00.852Z,6.00
2018-10-07T10:34:17.315Z,5.90
2018-10-07T10:35:58.440Z,6.20
2018-10-07T10:37:05.628Z,5.75
2018-10-07T10:38:16.598Z,6.05
2018-10-07T10:39:33.425Z,6.60
2018-10-07T10:40:55.089Z,6.45
2018-10-07T10:42:09.662Z,6.47
2018-10-07T10:43:17.902Z,6.40
2018-10-07T10:44:24.336Z,6.62
2018-10-07T10:45:33.857Z,6.62
2018-10-07T10:46:43.963Z,6.70
2018-10-07T10:47:48.815Z,6.37
2018-10-07T10:49:26.152Z,6.53
2018-10-07T10:53:12.312Z,6.05
2018-10-07T10:54:24.578Z,5.70
2018-10-07T10:55:36.799Z,5.87
2018-10-07T10:56:46.412Z,6.33
2018-10-07T10:57:54.633Z,6.12
2018-10-07T11:01:29.569Z,6.22
2018-10-07T11:03:15.603Z,5.45
2018-10-07T11:04:27.997Z,5.60
2018-10-07T11:05:37.931Z,5.92
2018-10-07T11:07:24.670Z,5.97
2018-10-07T11:08:36.433Z,6.17
2018-10-07T11:10:09.875Z,6.12
2018-10-07T11:11:16.860Z,6.20
2018-10-07T11:12:28.055Z,6.53
2018-10-07T11:13:35.621Z,6.47
2018-10-07T11:14:49.386Z,6.37
2018-10-07T11:15:59.911Z,7.03
2018-10-07T11:17:37.875Z,6.67
2018-10-07T11:19:20.077Z,6.00
2018-10-07T11:20:27.419Z,6.17
2018-10-07T11:21:45.350Z,6.55
2018-10-07T11:23:00.127Z,6.03
2018-10-07T11:24:09.293Z,5.75
2018-10-07T11:25:29.226Z,5.90
2018-10-07T11:26:45.307Z,6.00
2018-10-07T11:28:01.442Z,5.50
2018-10-07T11:29:12.395Z,6.00
2018-10-07T11:32:32.884Z,6.28
2018-10-07T11:33:45.387Z,5.25
2018-10-07T11:35:00.905Z,5.75
2018-10-07T11:36:15.750Z,5.62
2018-10-07T11:37:29.708Z,5.72
2018-10-07T11:38:43.031Z,5.90
2018-10-07T11:40:00.387Z,6.00
2018-10-07T11:41:16.657Z,5.80
2018-10-07T11:42:30.285Z,6.10
2018-10-07T11:43:44.917Z,5.87
2018-10-07T11:44:55.121Z,5.83
2018-10-07T11:46:04.332Z,6.08
2018-10-07T11:47:17.605Z,6.30
2018-10-07T11:48:27.632Z,6.12
2018-10-07T11:49:41.484Z,5.80
2018-10-07T11:52:57.483Z,5.83
2018-10-07T11:54:03.907Z,5.40
2018-10-07T11:55:06.823Z,6.58
2018-10-07T11:56:09.862Z,5.75
2018-10-07T11:57:12.974Z,6.58
2018-10-07T11:58:16.044Z,6.05
2018-10-07T11:59:19.058Z,5.65
2018-10-07T12:00:22.086Z,6.22
2018-10-07T12:01:25.087Z,6.33
2018-10-07T12:02:28.390Z,6.62
2018-10-07T12:03:31.359Z,6.05
2018-10-07T12:04:34.513Z,6.87
2018-10-07T12:05:37.530Z,7.22
2018-10-07T12:06:40.543Z,6.65
2018-10-07T12:07:43.577Z,6.47
2018-10-07T12:08:46.636Z,6.22
2018-10-07T12:09:49.626Z,6.20
2018-10-07T12:10:52.636Z,6.20
2018-10-07T12:11:55.651Z,6.70
2018-10-07T12:12:58.728Z,6.90
2018-10-07T12:14:01.782Z,6.85
2018-10-07T12:15:04.859Z,6.50
2018-10-07T12:16:07.955Z,6.97
2018-10-07T12:17:11.290Z,6.53
2018-10-07T12:18:14.618Z,6.65
2018-10-07T12:19:17.776Z,6.45
2018-10-07T12:20:20.907Z,5.72
2018-10-07T12:21:24.054Z,6.47
2018-10-07T12:22:27.323Z,6.97
2018-10-07T12:23:30.521Z,6.55
2018-10-07T12:24:33.505Z,6.37
2018-10-07T12:25:36.687Z,7.00
2018-10-07T12:26:39.742Z,7.40
2018-10-07T12:27:42.831Z,7.33
2018-10-07T12:28:45.933Z,6.95
2018-10-07T12:29:48.977Z,6.72
2018-10-07T12:30:52.035Z,6.75
2018-10-07T12:31:55.254Z,6.33
2018-10-07T12:32:58.346Z,6.50
2018-10-07T12:34:01.331Z,6.20
2018-10-07T12:35:04.393Z,6.30
2018-10-07T12:36:08.192Z,6.90
2018-10-07T12:37:11.320Z,6.42
2018-10-07T12:38:14.399Z,7.17
2018-10-07T12:39:18.083Z,6.67
2018-10-07T12:40:21.145Z,6.17
2018-10-07T12:41:24.136Z,5.72
2018-10-07T12:42:27.201Z,5.83
2018-10-07T12:43:30.262Z,5.78
2018-10-07T12:44:33.255Z,5.40
2018-10-07T12:45:36.320Z,5.70
2018-10-07T12:46:39.398Z,5.40
2018-10-07T12:47:42.498Z,5.85
2018-10-07T12:48:45.547Z,6.10
2018-10-07T12:49:55.068Z,6.22
2018-10-07T12:50:58.148Z,6.55
2018-10-07T12:52:01.182Z,6.62
2018-10-07T12:53:04.186Z,6.67
2018-10-07T12:54:07.301Z,6.00
2018-10-07T12:55:10.279Z,6.50
2018-10-07T12:56:13.367Z,6.00
2018-10-07T12:57:16.384Z,6.08
2018-10-07T12:58:19.407Z,6.78
2018-10-07T12:59:22.530Z,6.97
2018-10-07T13:00:25.785Z,6.50
2018-10-07T13:01:28.798Z,7.10
2018-10-07T13:02:31.950Z,6.30
2018-10-07T13:03:35.119Z,6.20
2018-10-07T13:04:38.145Z,5.80
2018-10-07T13:05:41.195Z,5.53
2018-10-07T13:06:44.279Z,5.65
2018-10-07T13:07:47.282Z,5.75
2018-10-07T13:08:50.419Z,5.45
2018-10-07T13:09:53.614Z,5.65
2018-10-07T13:10:56.681Z,5.75
2018-10-07T13:11:59.791Z,5.70
2018-10-07T13:13:02.794Z,5.85
2018-10-07T13:14:05.847Z,5.65
2018-10-07T13:15:09.114Z,5.95
2018-10-07T13:16:12.214Z,5.60
2018-10-07T13:17:15.243Z,5.30
2018-10-07T13:18:18.259Z,5.75
2018-10-07T13:19:21.313Z,5.20
2018-10-07T13:20:24.322Z,5.40
2018-10-07T13:21:27.316Z,5.03
2018-10-07T13:22:30.375Z,5.15
2018-10-07T13:23:33.374Z,5.12
2018-10-07T13:24:36.475Z,4.80
2018-10-07T13:25:39.554Z,4.37
2018-10-07T13:26:42.582Z,4.97
2018-10-07T13:27:45.641Z,4.78
2018-10-07T13:28:48.752Z,4.78
2018-10-07T13:29:51.731Z,5.17
2018-10-07T13:30:54.853Z,4.70
2018-10-07T13:31:57.926Z,4.72
2018-10-07T13:33:01.023Z,5.10
2018-10-07T13:34:04.066Z,4.65
2018-10-07T13:35:07.078Z,4.58
2018-10-07T13:36:10.250Z,4.15
2018-10-07T13:37:13.290Z,5.00
2018-10-07T13:38:19.200Z,4.42
2018-10-07T13:39:22.315Z,4.47
2018-10-07T13:40:25.343Z,4.75
2018-10-07T13:41:28.384Z,4.47
2018-10-07T13:42:31.634Z,4.22
2018-10-07T13:43:34.658Z,3.95
2018-10-07T13:44:37.707Z,3.77
2018-10-07T13:45:40.762Z,4.10
2018-10-07T13:46:43.825Z,4.20
2018-10-07T13:47:46.870Z,3.83
2018-10-07T13:48:49.957Z,3.92
2018-10-07T13:49:52.995Z,4.35
2018-10-07T13:50:55.973Z,4.08
2018-10-07T13:51:59.058Z,4.65
2018-10-07T13:53:02.119Z,4.30
2018-10-07T13:54:05.225Z,3.70
2018-10-07T13:55:08.303Z,3.80
2018-10-07T13:56:11.367Z,4.30
2018-10-07T13:57:14.410Z,4.22
2018-10-07T13:58:17.498Z,4.15
2018-10-07T13:59:20.565Z,4.05
2018-10-07T14:00:23.651Z,3.70
2018-10-07T14:01:26.686Z,4.00
2018-10-07T14:02:29.761Z,3.65
2018-10-07T14:03:32.931Z,3.50
2018-10-07T14:04:35.894Z,3.90
2018-10-07T14:05:38.903Z,3.90
2018-10-07T14:06:41.940Z,4.05
2018-10-07T14:07:45.071Z,4.22
2018-10-07T14:08:48.146Z,3.60
2018-10-07T14:09:51.194Z,3.80
2018-10-07T14:10:54.182Z,3.65
2018-10-07T14:11:57.243Z,4.03
2018-10-07T14:13:00.239Z,3.42
2018-10-07T14:14:03.398Z,3.67
2018-10-07T14:15:06.978Z,3.60
2018-10-07T14:16:10.035Z,3.40
2018-10-07T14:17:13.047Z,3.52
2018-10-07T14:18:16.222Z,3.67
2018-10-07T14:19:19.339Z,3.27
2018-10-07T14:20:22.350Z,3.40
2018-10-07T14:21:25.427Z,2.95
2018-10-07T14:22:28.479Z,3.35
2018-10-07T14:23:31.526Z,3.75
2018-10-07T14:24:34.590Z,3.52
2018-10-07T14:25:37.636Z,3.77
2018-10-07T14:26:40.624Z,3.70
2018-10-07T14:27:43.620Z,3.83
2018-10-07T14:28:46.623Z,3.75
2018-10-07T14:29:49.645Z,3.40
2018-10-07T14:30:52.663Z,3.75
2018-10-07T14:31:55.810Z,4.00